Airport View

Enter AWOS ICAO identifier for current METAR.

ex. KFNL

KCNB 080515Z AUTO 09005KT 10SM CLR 22/20 A2985 RMK AO2 T02220195

8 Jul 2020 05:30

Frequency: 118.575

Phone: 507-223-5293

Other Area AWOS: KDXX - KMML - KMVE - KGDB

TAF AMD KATY 080203Z 0802/0824 13005KT P6SM SCT250 FM080600 17013G23KT P6SM BKN250 WS020/18040KT FM081500 22015G25KT P6SM BKN250 FM082300 26009KT P6SM SCT200